createdAt,value
2023-01-07T00:01:09.610Z,100906.81
2023-01-07T00:03:37.130Z,100908.06
2023-01-07T00:06:09.471Z,100914.44
2023-01-07T00:08:38.134Z,100913.91
2023-01-07T00:11:06.502Z,100912.38
2023-01-07T00:13:33.255Z,100914.06
2023-01-07T00:16:01.450Z,100910.94
2023-01-07T00:18:28.074Z,100916.00
2023-01-07T00:21:02.713Z,100910.47
2023-01-07T00:23:30.751Z,100900.69
2023-01-07T00:26:06.081Z,100903.66
2023-01-07T00:28:37.342Z,100899.88
2023-01-07T00:31:16.521Z,100892.38
2023-01-07T00:33:51.783Z,100886.22
2023-01-07T00:36:19.533Z,100894.56
2023-01-07T00:38:46.534Z,100884.56
2023-01-07T00:41:12.938Z,100889.97
2023-01-07T00:43:39.502Z,100885.88
2023-01-07T00:46:06.067Z,100883.44
2023-01-07T00:48:32.517Z,100882.38
2023-01-07T00:50:58.914Z,100883.59
2023-01-07T00:53:25.287Z,100884.16
2023-01-07T00:55:52.048Z,100880.91
2023-01-07T00:58:24.298Z,100875.38
2023-01-07T01:00:55.066Z,100876.63
2023-01-07T01:03:21.743Z,100885.28
2023-01-07T01:05:48.251Z,100887.94
2023-01-07T01:08:14.679Z,100886.19
2023-01-07T01:10:41.105Z,100890.69
2023-01-07T01:13:07.571Z,100883.47
2023-01-07T01:15:34.016Z,100888.00
2023-01-07T01:18:00.464Z,100873.13
2023-01-07T01:20:26.905Z,100870.44
2023-01-07T01:22:53.354Z,100880.66
2023-01-07T01:25:19.756Z,100880.19
2023-01-07T01:27:46.140Z,100884.19
2023-01-07T01:30:12.784Z,100882.59
2023-01-07T01:32:39.202Z,100887.25
2023-01-07T01:35:06.174Z,100892.03
2023-01-07T01:37:32.588Z,100879.97
2023-01-07T01:39:59.034Z,100876.66
2023-01-07T01:42:26.083Z,100875.97
2023-01-07T01:44:53.782Z,100869.13
2023-01-07T01:47:35.298Z,100867.28
2023-01-07T01:50:26.797Z,100868.97
2023-01-07T01:52:59.803Z,100874.53
2023-01-07T01:55:33.194Z,100870.78
2023-01-07T01:58:04.280Z,100873.69
2023-01-07T02:00:31.509Z,100860.50
2023-01-07T02:02:59.526Z,100864.78
2023-01-07T02:05:31.575Z,100863.13
2023-01-07T02:07:57.997Z,100855.19
2023-01-07T02:10:25.348Z,100856.50
2023-01-07T02:13:17.698Z,100852.13
2023-01-07T02:15:56.360Z,100858.88
2023-01-07T02:18:44.664Z,100862.72
2023-01-07T02:21:27.255Z,100860.53
2023-01-07T02:24:11.281Z,100865.13
2023-01-07T02:26:52.689Z,100863.88
2023-01-07T02:29:41.182Z,100856.88
2023-01-07T02:32:28.077Z,100849.59
2023-01-07T02:35:19.046Z,100844.91
2023-01-07T02:38:04.329Z,100841.16
2023-01-07T02:40:37.038Z,100845.59
2023-01-07T02:43:27.267Z,100843.97
2023-01-07T02:46:16.024Z,100845.41
2023-01-07T02:48:44.991Z,100840.19
2023-01-07T02:51:11.648Z,100845.13
2023-01-07T02:53:42.064Z,100843.53
2023-01-07T02:56:51.764Z,100847.81
2023-01-07T02:59:27.267Z,100836.38
2023-01-07T03:02:18.386Z,100836.00
2023-01-07T03:05:11.964Z,100832.22
2023-01-07T03:07:41.063Z,100849.34
2023-01-07T03:10:25.428Z,100838.16
2023-01-07T03:12:58.388Z,100833.34
2023-01-07T03:15:39.792Z,100832.72
2023-01-07T03:18:18.595Z,100822.56
2023-01-07T03:20:48.580Z,100828.41
2023-01-07T03:23:20.135Z,100827.09
2023-01-07T03:25:50.294Z,100831.28
2023-01-07T03:28:21.243Z,100825.13
2023-01-07T03:30:49.178Z,100829.56
2023-01-07T03:33:23.203Z,100826.47
2023-01-07T03:35:52.048Z,100829.16
2023-01-07T03:38:21.767Z,100822.56
2023-01-07T03:40:50.738Z,100820.25
2023-01-07T03:43:22.799Z,100822.53
2023-01-07T03:45:52.292Z,100826.88
2023-01-07T03:48:18.818Z,100815.31
2023-01-07T03:50:45.292Z,100813.56
2023-01-07T03:53:11.729Z,100809.59
2023-01-07T03:55:38.127Z,100808.97
2023-01-07T03:58:04.543Z,100802.59
2023-01-07T04:00:30.983Z,100802.56
2023-01-07T04:02:57.451Z,100799.56
2023-01-07T04:05:23.889Z,100794.63
2023-01-07T04:07:50.469Z,100789.13
2023-01-07T04:10:16.861Z,100786.88
2023-01-07T04:12:43.275Z,100784.00
2023-01-07T04:15:10.077Z,100780.28
2023-01-07T04:17:36.490Z,100777.06
2023-01-07T04:20:03.647Z,100770.88
2023-01-07T04:22:30.268Z,100776.47
2023-01-07T04:24:57.920Z,100766.53
2023-01-07T04:27:24.341Z,100767.56
2023-01-07T04:29:50.796Z,100777.47
2023-01-07T04:32:17.193Z,100768.66
2023-01-07T04:34:43.612Z,100764.31
2023-01-07T04:37:10.028Z,100760.53
2023-01-07T04:39:36.470Z,100764.00
2023-01-07T04:42:02.864Z,100763.19
2023-01-07T04:44:29.343Z,100761.81
2023-01-07T04:46:55.747Z,100767.78
2023-01-07T04:49:22.167Z,100760.25
2023-01-07T04:51:48.578Z,100753.88
2023-01-07T04:54:15.172Z,100739.97
2023-01-07T04:56:41.585Z,100738.53
2023-01-07T04:59:08.017Z,100736.22
2023-01-07T05:01:34.477Z,100739.50
2023-01-07T05:04:01.252Z,100745.03
2023-01-07T05:06:27.755Z,100742.50
2023-01-07T05:08:54.275Z,100740.75
2023-01-07T05:11:21.809Z,100745.66
2023-01-07T05:13:51.250Z,100746.63
2023-01-07T05:16:18.046Z,100748.16
2023-01-07T05:18:45.059Z,100740.19
2023-01-07T05:21:12.292Z,100750.72
2023-01-07T05:23:38.820Z,100733.84
2023-01-07T05:26:05.862Z,100743.72
2023-01-07T05:28:32.296Z,100734.63
2023-01-07T05:30:58.767Z,100737.38
2023-01-07T05:33:25.261Z,100736.47
2023-01-07T05:35:51.772Z,100735.94
2023-01-07T05:38:18.192Z,100743.66
2023-01-07T05:40:49.743Z,100746.25
2023-01-07T05:43:16.861Z,100750.00
2023-01-07T05:45:45.623Z,100746.38
2023-01-07T05:48:13.267Z,100749.16
2023-01-07T05:50:39.722Z,100744.03
2023-01-07T05:53:06.238Z,100749.22
2023-01-07T05:55:32.878Z,100748.41
2023-01-07T05:57:59.286Z,100748.34
2023-01-07T06:00:25.690Z,100753.34
2023-01-07T06:02:52.073Z,100750.19
2023-01-07T06:05:18.523Z,100748.84
2023-01-07T06:07:44.921Z,100746.41
2023-01-07T06:10:11.342Z,100757.41
2023-01-07T06:12:37.765Z,100751.09
2023-01-07T06:15:07.070Z,100753.59
2023-01-07T06:17:34.192Z,100747.91
2023-01-07T06:20:00.941Z,100751.13
2023-01-07T06:22:27.631Z,100756.50
2023-01-07T06:24:54.153Z,100760.53
2023-01-07T06:27:20.616Z,100757.03
2023-01-07T06:29:47.052Z,100746.50
2023-01-07T06:32:13.544Z,100747.47
2023-01-07T06:34:39.940Z,100747.31
2023-01-07T06:37:06.417Z,100742.16
2023-01-07T06:39:32.822Z,100744.13
2023-01-07T06:41:59.237Z,100733.56
2023-01-07T06:44:25.636Z,100732.34
2023-01-07T06:46:52.244Z,100741.56
2023-01-07T06:49:18.692Z,100726.91
2023-01-07T06:51:45.146Z,100731.00
2023-01-07T06:54:11.615Z,100736.25
2023-01-07T06:56:38.031Z,100732.91
2023-01-07T06:59:04.477Z,100737.06
2023-01-07T07:01:31.010Z,100739.63
2023-01-07T07:03:57.462Z,100737.19
2023-01-07T07:06:23.876Z,100733.50
2023-01-07T07:08:50.265Z,100736.19
2023-01-07T07:11:16.727Z,100736.75
2023-01-07T07:13:43.141Z,100735.84
2023-01-07T07:16:09.642Z,100734.19
2023-01-07T07:18:36.146Z,100736.84
2023-01-07T07:21:02.636Z,100735.16
2023-01-07T07:23:29.077Z,100728.94
2023-01-07T07:25:55.498Z,100729.81
2023-01-07T07:28:21.974Z,100727.81
2023-01-07T07:30:48.555Z,100740.88
2023-01-07T07:33:18.906Z,100734.56
2023-01-07T07:35:46.623Z,100736.00
2023-01-07T07:38:13.105Z,100736.59
2023-01-07T07:40:39.550Z,100738.75
2023-01-07T07:43:11.821Z,100742.91
2023-01-07T07:45:39.945Z,100745.88
2023-01-07T07:48:07.576Z,100742.59
2023-01-07T07:50:34.899Z,100741.66
2023-01-07T07:53:01.507Z,100749.16
2023-01-07T07:55:28.096Z,100738.63
2023-01-07T07:57:55.621Z,100737.31
2023-01-07T08:00:23.190Z,100740.66
2023-01-07T08:02:50.174Z,100732.19
2023-01-07T08:05:16.634Z,100737.59
2023-01-07T08:07:43.044Z,100733.13
2023-01-07T08:10:09.668Z,100732.38
2023-01-07T08:12:39.888Z,100738.47
2023-01-07T08:15:08.115Z,100730.94
2023-01-07T08:17:36.217Z,100736.19
2023-01-07T08:20:07.452Z,100731.63
2023-01-07T08:22:34.434Z,100727.81
2023-01-07T08:25:01.701Z,100732.69
2023-01-07T08:27:29.100Z,100724.63
2023-01-07T08:29:56.182Z,100732.34
2023-01-07T08:32:22.728Z,100723.38
2023-01-07T08:34:49.155Z,100720.94
2023-01-07T08:37:15.580Z,100716.22
2023-01-07T08:42:09.695Z,100712.34
2023-01-07T08:44:36.140Z,100714.91
2023-01-07T08:47:02.701Z,100710.53
2023-01-07T08:49:29.201Z,100709.25
2023-01-07T08:51:55.607Z,100704.16
2023-01-07T08:54:22.039Z,100705.53
2023-01-07T08:56:48.490Z,100706.44
2023-01-07T08:59:15.152Z,100705.78
2023-01-07T09:01:41.727Z,100703.56
2023-01-07T09:04:08.278Z,100706.75
2023-01-07T09:06:34.660Z,100707.63
2023-01-07T09:09:01.119Z,100710.75
2023-01-07T09:11:27.554Z,100698.91
2023-01-07T09:13:53.975Z,100699.72
2023-01-07T09:16:20.430Z,100703.22
2023-01-07T09:18:46.984Z,100700.63
2023-01-07T09:21:13.451Z,100695.75
2023-01-07T09:23:40.398Z,100698.00
2023-01-07T09:26:07.271Z,100702.66
2023-01-07T09:28:33.701Z,100685.38
2023-01-07T09:31:00.855Z,100690.66
2023-01-07T09:33:27.350Z,100688.19
2023-01-07T09:35:53.868Z,100685.00
2023-01-07T09:38:20.297Z,100682.88
2023-01-07T09:40:47.328Z,100683.78
2023-01-07T09:43:21.355Z,100685.75
2023-01-07T09:45:52.426Z,100684.41
2023-01-07T09:48:29.564Z,100685.22
2023-01-07T09:51:03.514Z,100678.31
2023-01-07T09:53:36.813Z,100674.34
2023-01-07T09:56:11.583Z,100670.88
2023-01-07T09:58:41.771Z,100671.06
2023-01-07T10:01:23.093Z,100676.03
2023-01-07T10:04:31.515Z,100671.88
2023-01-07T10:07:31.944Z,100667.94
2023-01-07T10:10:38.712Z,100661.97
2023-01-07T10:13:16.950Z,100662.13
2023-01-07T10:15:58.250Z,100668.78
2023-01-07T10:18:40.755Z,100666.44
2023-01-07T10:21:22.222Z,100664.06
2023-01-07T10:24:20.440Z,100652.75
2023-01-07T10:26:51.275Z,100656.69
2023-01-07T10:29:27.355Z,100653.41
2023-01-07T10:31:56.070Z,100660.25
2023-01-07T10:34:34.218Z,100650.63
2023-01-07T10:37:12.967Z,100637.13
2023-01-07T10:39:47.468Z,100649.81
2023-01-07T10:42:30.941Z,100632.19
2023-01-07T10:45:25.283Z,100641.00
2023-01-07T10:48:27.137Z,100630.19
2023-01-07T10:51:38.513Z,100613.75
2023-01-07T10:54:19.881Z,100610.03
2023-01-07T10:56:58.144Z,100607.28
2023-01-07T10:59:25.548Z,100595.84
2023-01-07T11:01:57.523Z,100603.84
2023-01-07T11:04:24.701Z,100603.91
2023-01-07T11:06:58.522Z,100597.63
2023-01-07T11:09:29.714Z,100593.06
2023-01-07T11:12:01.030Z,100585.09
2023-01-07T11:14:34.145Z,100580.50
2023-01-07T11:17:26.231Z,100576.72
2023-01-07T11:19:52.661Z,100581.59
2023-01-07T11:22:28.030Z,100570.25
2023-01-07T11:24:55.567Z,100570.16
2023-01-07T11:27:25.267Z,100553.59
2023-01-07T11:30:10.814Z,100559.00
2023-01-07T11:32:40.451Z,100556.88
2023-01-07T11:35:22.595Z,100556.31
2023-01-07T11:37:49.830Z,100552.03
2023-01-07T11:40:24.420Z,100555.16
2023-01-07T11:43:04.437Z,100544.34
2023-01-07T11:45:47.623Z,100542.72
2023-01-07T11:48:38.506Z,100545.41
2023-01-07T11:51:10.103Z,100546.75
2023-01-07T11:53:48.749Z,100540.78
2023-01-07T11:56:21.239Z,100537.81
2023-01-07T11:59:15.284Z,100536.81
2023-01-07T12:02:02.034Z,100537.41
2023-01-07T12:04:30.482Z,100528.50
2023-01-07T12:07:01.294Z,100527.00
2023-01-07T12:09:27.711Z,100523.69
2023-01-07T12:11:57.630Z,100518.06
2023-01-07T12:14:32.746Z,100508.75
2023-01-07T12:17:16.015Z,100506.16
2023-01-07T12:19:58.840Z,100504.63
2023-01-07T12:22:43.769Z,100490.16
2023-01-07T12:25:13.240Z,100488.19
2023-01-07T12:28:13.150Z,100485.59
2023-01-07T12:30:58.438Z,100482.88
2023-01-07T12:33:43.015Z,100484.81
2023-01-07T12:36:29.543Z,100479.03
2023-01-07T12:39:00.909Z,100469.78
2023-01-07T12:41:32.301Z,100463.78
2023-01-07T12:44:02.693Z,100467.31
2023-01-07T12:47:31.211Z,100460.56
2023-01-07T12:49:53.099Z,100460.38
2023-01-07T12:52:24.353Z,100450.88
2023-01-07T12:55:03.738Z,100442.38
2023-01-07T12:57:41.529Z,100441.75
2023-01-07T13:00:19.856Z,100444.44
2023-01-07T13:02:57.981Z,100436.06
2023-01-07T13:05:31.373Z,100437.97
2023-01-07T13:08:36.692Z,100443.53
2023-01-07T13:11:44.627Z,100431.25
2023-01-07T13:14:21.921Z,100439.16
2023-01-07T13:16:48.486Z,100434.59
2023-01-07T13:19:14.941Z,100441.63
2023-01-07T13:21:45.431Z,100435.41
2023-01-07T13:24:56.346Z,100435.00
2023-01-07T13:27:41.152Z,100428.50
2023-01-07T13:30:27.147Z,100423.25
2023-01-07T13:33:13.680Z,100428.81
2023-01-07T13:36:06.792Z,100415.50
2023-01-07T13:38:42.337Z,100418.91
2023-01-07T13:41:36.393Z,100412.53
2023-01-07T13:44:27.791Z,100422.28
2023-01-07T13:46:55.039Z,100418.34
2023-01-07T13:49:26.795Z,100416.00
2023-01-07T13:51:54.011Z,100419.59
2023-01-07T13:54:53.517Z,100405.88
2023-01-07T13:57:26.144Z,100407.13
2023-01-07T13:59:57.039Z,100399.84
2023-01-07T14:02:26.533Z,100406.41
2023-01-07T14:05:23.490Z,100396.94
2023-01-07T14:08:04.028Z,100398.22
2023-01-07T14:10:32.467Z,100389.91
2023-01-07T14:13:14.188Z,100391.03
2023-01-07T14:16:05.969Z,100393.28
2023-01-07T14:19:06.141Z,100390.59
2023-01-07T14:21:52.570Z,100388.22
2023-01-07T14:24:32.650Z,100380.41
2023-01-07T14:27:39.255Z,100386.56
2023-01-07T14:30:43.518Z,100387.34
2023-01-07T14:33:17.871Z,100375.56
2023-01-07T14:35:54.800Z,100371.81
2023-01-07T14:38:29.992Z,100370.56
2023-01-07T14:41:09.361Z,100366.66
2023-01-07T14:43:51.636Z,100356.38
2023-01-07T14:46:21.186Z,100357.66
2023-01-07T14:49:03.384Z,100352.53
2023-01-07T14:51:44.941Z,100353.09
2023-01-07T14:54:32.675Z,100344.88
2023-01-07T14:57:29.638Z,100346.56
2023-01-07T15:00:05.134Z,100336.94
2023-01-07T15:02:43.765Z,100343.53
2023-01-07T15:05:39.828Z,100338.00
2023-01-07T15:08:28.109Z,100329.16
2023-01-07T15:11:16.981Z,100330.78
2023-01-07T15:14:15.594Z,100332.06
2023-01-07T15:16:45.789Z,100322.69
2023-01-07T15:19:12.750Z,100314.06
2023-01-07T15:21:45.076Z,100314.38
2023-01-07T15:24:20.656Z,100310.66
2023-01-07T15:26:57.357Z,100316.56
2023-01-07T15:29:50.543Z,100310.72
2023-01-07T15:32:32.206Z,100314.72
2023-01-07T15:34:58.911Z,100304.44
2023-01-07T15:37:25.553Z,100309.69
2023-01-07T15:39:57.280Z,100312.56
2023-01-07T15:42:26.775Z,100302.31
2023-01-07T15:44:58.103Z,100298.41
2023-01-07T15:47:43.719Z,100297.75
2023-01-07T15:50:22.128Z,100289.28
2023-01-07T15:52:56.155Z,100272.69
2023-01-07T15:55:26.258Z,100268.47
2023-01-07T15:57:59.764Z,100264.75
2023-01-07T16:00:26.387Z,100268.47
2023-01-07T16:02:53.263Z,100264.84
2023-01-07T16:05:20.059Z,100278.38
2023-01-07T16:07:52.729Z,100275.34
2023-01-07T16:10:29.403Z,100262.59
2023-01-07T16:12:58.268Z,100249.19
2023-01-07T16:15:30.567Z,100246.06
2023-01-07T16:17:59.963Z,100245.81
2023-01-07T16:20:30.491Z,100247.56
2023-01-07T16:23:17.827Z,100254.66
2023-01-07T16:25:47.325Z,100244.06
2023-01-07T16:28:31.226Z,100240.41
2023-01-07T16:30:58.242Z,100241.09
2023-01-07T16:33:27.135Z,100248.59
2023-01-07T16:35:57.733Z,100238.19
2023-01-07T16:38:25.318Z,100240.84
2023-01-07T16:40:52.554Z,100238.28
2023-01-07T16:43:42.230Z,100227.06
2023-01-07T16:46:28.585Z,100224.16
2023-01-07T16:49:28.990Z,100217.03
2023-01-07T16:52:11.721Z,100216.19
2023-01-07T16:54:40.249Z,100211.09
2023-01-07T16:57:12.725Z,100207.28
2023-01-07T16:59:53.837Z,100201.31
2023-01-07T17:02:42.455Z,100196.03
2023-01-07T17:05:12.400Z,100193.03
2023-01-07T17:07:39.416Z,100187.81
2023-01-07T17:10:06.480Z,100189.31
2023-01-07T17:12:40.458Z,100181.53
2023-01-07T17:15:31.245Z,100184.00
2023-01-07T17:18:13.063Z,100182.56
2023-01-07T17:20:52.769Z,100177.63
2023-01-07T17:23:25.400Z,100178.50
2023-01-07T17:26:01.026Z,100168.38
2023-01-07T17:28:31.451Z,100172.97
2023-01-07T17:30:58.516Z,100156.81
2023-01-07T17:33:25.335Z,100158.84
2023-01-07T17:35:54.390Z,100157.88
2023-01-07T17:38:20.942Z,100164.69
2023-01-07T17:40:48.059Z,100160.19
2023-01-07T17:43:34.636Z,100164.78
2023-01-07T17:46:14.637Z,100161.72
2023-01-07T17:48:41.093Z,100152.13
2023-01-07T17:51:09.854Z,100149.91
2023-01-07T17:53:42.409Z,100148.00
2023-01-07T17:56:09.205Z,100146.44
2023-01-07T17:58:37.510Z,100141.72
2023-01-07T18:01:12.276Z,100150.44
2023-01-07T18:03:38.948Z,100145.66
2023-01-07T18:06:16.433Z,100142.69
2023-01-07T18:08:43.057Z,100147.16
2023-01-07T18:11:32.042Z,100142.78
2023-01-07T18:13:58.581Z,100142.91
2023-01-07T18:16:25.389Z,100149.78
2023-01-07T18:18:51.860Z,100140.03
2023-01-07T18:21:18.485Z,100149.13
2023-01-07T18:23:45.986Z,100133.44
2023-01-07T18:26:14.116Z,100130.84
2023-01-07T18:28:41.738Z,100111.88
2023-01-07T18:31:08.429Z,100117.94
2023-01-07T18:33:35.422Z,100109.03
2023-01-07T18:36:02.117Z,100098.84
2023-01-07T18:38:28.568Z,100104.31
2023-01-07T18:40:55.559Z,100100.00
2023-01-07T18:43:22.352Z,100099.47
2023-01-07T18:45:49.090Z,100099.56
2023-01-07T18:48:19.169Z,100101.19
2023-01-07T18:50:48.286Z,100096.72
2023-01-07T18:53:16.241Z,100093.09
2023-01-07T18:55:43.789Z,100088.50
2023-01-07T18:58:15.192Z,100083.53
2023-01-07T19:00:42.047Z,100094.16
2023-01-07T19:03:09.930Z,100093.78
2023-01-07T19:05:39.193Z,100089.28
2023-01-07T19:08:05.731Z,100088.19
2023-01-07T19:10:32.326Z,100082.66
2023-01-07T19:12:58.764Z,100089.59
2023-01-07T19:15:25.168Z,100085.03
2023-01-07T19:17:51.645Z,100089.88
2023-01-07T19:20:18.257Z,100076.00
2023-01-07T19:22:44.680Z,100066.34
2023-01-07T19:25:11.146Z,100066.66
2023-01-07T19:27:37.882Z,100074.31
2023-01-07T19:30:05.660Z,100066.00
2023-01-07T19:32:32.093Z,100062.38
2023-01-07T19:34:58.635Z,100061.22
2023-01-07T19:37:25.177Z,100061.31
2023-01-07T19:39:51.683Z,100069.91
2023-01-07T19:42:18.162Z,100069.84
2023-01-07T19:44:44.650Z,100059.19
2023-01-07T19:47:11.191Z,100051.22
2023-01-07T19:49:37.675Z,100047.22
2023-01-07T19:52:04.182Z,100045.50
2023-01-07T19:54:30.774Z,100049.78
2023-01-07T19:56:57.191Z,100048.19
2023-01-07T19:59:23.636Z,100032.53
2023-01-07T20:01:50.274Z,100038.66
2023-01-07T20:04:16.850Z,100036.72
2023-01-07T20:06:43.413Z,100030.66
2023-01-07T20:09:12.699Z,100034.50
2023-01-07T20:11:40.471Z,100010.69
2023-01-07T20:14:07.733Z,100004.78
2023-01-07T20:16:36.715Z,100016.66
2023-01-07T20:19:03.638Z,99998.88
2023-01-07T20:21:30.138Z,100001.34
2023-01-07T20:23:56.626Z,99990.66
2023-01-07T20:26:26.727Z,99982.16
2023-01-07T20:28:53.693Z,99985.06
2023-01-07T20:31:22.079Z,99985.06
2023-01-07T20:33:50.379Z,99976.97
2023-01-07T20:36:19.252Z,99974.13
2023-01-07T20:38:46.737Z,99970.31
2023-01-07T20:41:18.731Z,99971.22
2023-01-07T20:43:53.889Z,99966.16
2023-01-07T20:46:20.977Z,99953.91
2023-01-07T20:48:47.750Z,99950.69
2023-01-07T20:51:15.665Z,99942.13
2023-01-07T20:53:42.463Z,99937.53
2023-01-07T20:56:09.581Z,99935.03
2023-01-07T20:58:37.662Z,99930.25
2023-01-07T21:01:14.284Z,99926.47
2023-01-07T21:03:41.341Z,99925.66
2023-01-07T21:06:10.367Z,99928.38
2023-01-07T21:08:37.421Z,99930.69
2023-01-07T21:11:07.270Z,99932.16
2023-01-07T21:13:33.873Z,99928.34
2023-01-07T21:16:04.522Z,99935.06
2023-01-07T21:19:09.650Z,99933.25
2023-01-07T21:21:36.166Z,99937.00
2023-01-07T21:24:02.625Z,99934.94
2023-01-07T21:26:29.115Z,99924.31
2023-01-07T21:28:56.137Z,99928.28
2023-01-07T21:31:23.391Z,99928.78
2023-01-07T21:33:53.500Z,99926.38
2023-01-07T21:36:19.996Z,99936.34
2023-01-07T21:38:51.196Z,99935.13
2023-01-07T21:41:17.647Z,99945.34
2023-01-07T21:43:44.676Z,99944.59
2023-01-07T21:46:11.512Z,99932.91
2023-01-07T21:48:40.677Z,99947.34
2023-01-07T21:51:12.525Z,99939.97
2023-01-07T21:53:38.940Z,99930.97
2023-01-07T21:56:11.651Z,99937.34
2023-01-07T21:58:38.500Z,99932.19
2023-01-07T22:01:05.991Z,99929.00
2023-01-07T22:03:33.049Z,99929.69
2023-01-07T22:06:02.014Z,99933.25
2023-01-07T22:08:28.571Z,99921.78
2023-01-07T22:10:55.039Z,99917.38
2023-01-07T22:13:21.725Z,99908.59
2023-01-07T22:15:48.191Z,99913.91
2023-01-07T22:18:14.592Z,99908.50
2023-01-07T22:20:41.322Z,99908.28
2023-01-07T22:23:08.228Z,99902.78
2023-01-07T22:25:34.708Z,99891.00
2023-01-07T22:28:04.033Z,99896.91
2023-01-07T22:30:34.217Z,99889.66
2023-01-07T22:33:00.740Z,99881.97
2023-01-07T22:35:28.517Z,99877.97
2023-01-07T22:37:55.858Z,99881.22
2023-01-07T22:40:22.439Z,99884.25
2023-01-07T22:42:56.990Z,99874.75
2023-01-07T22:45:34.546Z,99881.22
2023-01-07T22:48:02.672Z,99876.78
2023-01-07T22:50:29.286Z,99875.69
2023-01-07T22:52:55.724Z,99884.00
2023-01-07T22:55:22.252Z,99869.59
2023-01-07T22:57:48.983Z,99871.09
2023-01-07T23:00:36.834Z,99873.41
2023-01-07T23:03:03.597Z,99865.28
2023-01-07T23:05:30.157Z,99864.47
2023-01-07T23:07:59.319Z,99873.78
2023-01-07T23:10:25.757Z,99873.34
2023-01-07T23:12:52.192Z,99870.97
2023-01-07T23:15:18.604Z,99873.09
2023-01-07T23:17:45.070Z,99861.16
2023-01-07T23:20:11.563Z,99862.97
2023-01-07T23:22:37.984Z,99850.56
2023-01-07T23:25:04.911Z,99850.78
2023-01-07T23:27:31.339Z,99849.69
2023-01-07T23:29:58.569Z,99852.50
2023-01-07T23:32:25.389Z,99843.41
2023-01-07T23:34:51.872Z,99839.16
2023-01-07T23:37:18.311Z,99826.00
2023-01-07T23:39:44.728Z,99836.69
2023-01-07T23:42:11.146Z,99835.91
2023-01-07T23:44:37.574Z,99827.47
2023-01-07T23:47:04.551Z,99821.31
2023-01-07T23:49:31.927Z,99815.69
2023-01-07T23:51:58.721Z,99803.66
2023-01-07T23:54:25.159Z,99797.25
2023-01-07T23:56:51.743Z,99802.31
2023-01-07T23:59:18.451Z,99795.44
